Time;durP1;ratioP1;P1;durP2;ratioP2;P2;SDS_P1;SDS_P2;PMS_P1;PMS_P2;Temp;Humidity;BMP_temperature;BMP_pressure;BME280_temperature;BME280_humidity;BME280_pressure;Samples;Min_cycle;Max_cycle;Signal;HPM_P1;HPM_P2
2022/06/13 00:02:15;;;;;;;15.85;5.20;;;;;;;;;;6106605;23;20047;-81
2022/06/13 00:04:42;;;;;;;10.73;4.82;;;;;;;;;;6106351;23;20777;-82
2022/06/13 00:07:09;;;;;;;13.10;4.85;;;;;;;;;;6106452;23;20019;-81
2022/06/13 00:09:37;;;;;;;16.02;5.13;;;;;;;;;;6106355;23;20039;-81
2022/06/13 00:12:04;;;;;;;19.02;6.00;;;;;;;;;;6105494;23;20433;-81
2022/06/13 00:14:31;;;;;;;11.65;5.10;;;;;;;;;;6108522;23;20058;-82
2022/06/13 00:16:58;;;;;;;13.80;4.82;;;;;;;;;;6110317;23;20083;-82
2022/06/13 00:19:26;;;;;;;15.95;5.03;;;;;;;;;;6110131;23;20044;-83
2022/06/13 00:21:53;;;;;;;15.55;4.82;;;;;;;;;;6111038;23;20053;-82
2022/06/13 00:24:20;;;;;;;19.20;5.75;;;;;;;;;;6109557;23;20027;-81
2022/06/13 00:26:47;;;;;;;19.52;5.65;;;;;;;;;;6111168;23;20023;-81
2022/06/13 00:29:14;;;;;;;14.98;5.90;;;;;;;;;;6106122;23;20026;-81
2022/06/13 00:31:41;;;;;;;19.33;6.43;;;;;;;;;;6106509;23;20701;-81
2022/06/13 00:34:08;;;;;;;12.23;5.03;;;;;;;;;;6106252;23;20472;-81
2022/06/13 00:36:36;;;;;;;17.85;5.47;;;;;;;;;;6105098;23;20027;-81
2022/06/13 00:39:03;;;;;;;15.43;6.28;;;;;;;;;;6104924;23;20034;-81
2022/06/13 00:41:31;;;;;;;18.17;5.50;;;;;;;;;;6107178;23;20049;-81
2022/06/13 00:43:59;;;;;;;16.63;5.75;;;;;;;;;;6104611;23;20031;-81
2022/06/13 00:46:32;;;;;;;19.70;5.78;;;;;;;;;;6104677;23;20743;-81
2022/06/13 00:49:05;;;;;;;16.02;5.18;;;;;;;;;;6080744;23;20409;-81
2022/06/13 00:51:34;;;;;;;16.50;5.50;;;;;;;;;;6105109;23;20030;-82
2022/06/13 00:54:01;;;;;;;13.23;5.75;;;;;;;;;;6104495;23;20027;-81
2022/06/13 00:56:30;;;;;;;16.10;5.55;;;;;;;;;;6104468;23;20071;-82
2022/06/13 00:58:58;;;;;;;14.27;5.13;;;;;;;;;;6105078;23;20027;-81
2022/06/13 01:01:26;;;;;;;10.05;4.93;;;;;;;;;;6105355;23;20042;-81
2022/06/13 01:03:54;;;;;;;16.20;5.35;;;;;;;;;;6105482;23;20019;-81
2022/06/13 01:06:22;;;;;;;16.55;5.75;;;;;;;;;;6079201;23;20042;-81
2022/06/13 01:08:49;;;;;;;13.93;5.57;;;;;;;;;;6105238;23;20061;-81
2022/06/13 01:11:19;;;;;;;19.13;5.85;;;;;;;;;;6105353;23;20037;-81
2022/06/13 01:13:52;;;;;;;15.50;5.95;;;;;;;;;;6105587;23;20803;-81
2022/06/13 01:16:19;;;;;;;;;;;;;;;;;;6105201;23;20025;-81
2022/06/13 01:18:55;;;;;;;13.10;5.13;;;;;;;;;;6104894;23;43700;-82
2022/06/13 01:21:25;;;;;;;20.95;6.32;;;;;;;;;;6105250;23;20034;-82
2022/06/13 01:24:04;;;;;;;17.70;6.32;;;;;;;;;;6105537;23;20487;-82
2022/06/13 01:26:55;;;;;;;12.95;6.13;;;;;;;;;;6103563;23;20786;-81
2022/06/13 01:29:23;;;;;;;16.55;5.85;;;;;;;;;;6103990;23;20241;-81
2022/06/13 01:31:50;;;;;;;13.93;5.63;;;;;;;;;;6104448;23;20023;-82
2022/06/13 01:34:25;;;;;;;17.42;5.50;;;;;;;;;;6105397;23;20031;-81
2022/06/13 01:36:52;;;;;;;12.50;5.63;;;;;;;;;;6104552;23;20933;-81
2022/06/13 01:39:30;;;;;;;20.50;5.85;;;;;;;;;;6103934;23;20046;-81
2022/06/13 01:42:04;;;;;;;21.02;5.63;;;;;;;;;;6105134;23;20027;-81
2022/06/13 01:44:39;;;;;;;19.30;5.32;;;;;;;;;;6104415;23;20108;-81
2022/06/13 01:47:06;;;;;;;15.00;5.70;;;;;;;;;;6104520;23;20023;-82
2022/06/13 01:49:43;;;;;;;12.73;5.13;;;;;;;;;;6105276;23;20082;-81
2022/06/13 01:52:27;;;;;;;11.70;5.30;;;;;;;;;;6078867;23;20364;-81
2022/06/13 01:54:54;;;;;;;;;;;;;;;;;;6104950;23;20017;-81
2022/06/13 01:57:33;;;;;;;14.43;5.22;;;;;;;;;;6077834;23;45059;-82
2022/06/13 02:00:06;;;;;;;16.50;5.72;;;;;;;;;;6104313;23;20118;-82
2022/06/13 02:02:34;;;;;;;12.93;5.78;;;;;;;;;;6104444;23;20027;-82
2022/06/13 02:05:11;;;;;;;17.67;6.30;;;;;;;;;;6104547;23;20065;-82
2022/06/13 02:07:43;;;;;;;17.45;6.18;;;;;;;;;;6105484;23;20673;-81
2022/06/13 02:10:33;;;;;;;11.75;5.57;;;;;;;;;;6103201;23;20027;-81
2022/06/13 02:13:16;;;;;;;13.95;6.25;;;;;;;;;;6104100;23;20105;-81
2022/06/13 02:15:46;;;;;;;16.70;6.30;;;;;;;;;;6126089;23;20035;-82
2022/06/13 02:18:16;;;;;;;19.65;6.25;;;;;;;;;;6103405;23;20083;-81
2022/06/13 02:20:46;;;;;;;14.85;6.30;;;;;;;;;;6105257;23;20110;-82
2022/06/13 02:23:15;;;;;;;15.20;7.20;;;;;;;;;;6106603;23;20062;-81
2022/06/13 02:25:57;;;;;;;19.17;7.00;;;;;;;;;;6105231;23;20764;-82
2022/06/13 02:28:28;;;;;;;19.08;6.30;;;;;;;;;;6104381;23;20059;-82
2022/06/13 02:31:23;;;;;;;18.63;6.85;;;;;;;;;;6105415;23;20710;-81
2022/06/13 02:33:50;;;;;;;18.08;6.25;;;;;;;;;;6104277;23;20050;-81
2022/06/13 02:36:17;;;;;;;14.00;5.53;;;;;;;;;;6104892;23;20105;-81
2022/06/13 02:38:49;;;;;;;16.50;5.55;;;;;;;;;;6104879;23;20097;-81
2022/06/13 02:41:19;;;;;;;12.20;5.35;;;;;;;;;;6104760;23;20027;-81
2022/06/13 02:43:52;;;;;;;21.45;6.50;;;;;;;;;;6105681;23;20027;-81
2022/06/13 02:46:23;;;;;;;17.63;5.80;;;;;;;;;;6104915;23;20053;-81
2022/06/13 02:48:54;;;;;;;15.10;6.13;;;;;;;;;;6105683;23;20022;-81
2022/06/13 02:51:30;;;;;;;18.63;6.22;;;;;;;;;;6105236;23;20629;-82
2022/06/13 02:54:07;;;;;;;16.50;6.55;;;;;;;;;;6104781;23;20102;-83
2022/06/13 02:59:57;;;;;;;15.93;5.75;;;;;;;;;;6105264;23;20023;-81
2022/06/13 03:02:42;;;;;;;17.27;6.38;;;;;;;;;;6105947;23;20111;-81
2022/06/13 03:05:20;;;;;;;15.27;6.15;;;;;;;;;;6105953;23;20019;-81
2022/06/13 03:07:59;;;;;;;11.07;5.68;;;;;;;;;;6105012;23;20110;-82
2022/06/13 03:10:31;;;;;;;19.75;6.53;;;;;;;;;;6105492;23;20034;-81
2022/06/13 03:13:02;;;;;;;17.40;6.22;;;;;;;;;;6104962;23;20101;-81
2022/06/13 03:15:45;;;;;;;15.00;5.63;;;;;;;;;;6105586;23;20023;-82
2022/06/13 03:18:16;;;;;;;17.75;6.63;;;;;;;;;;6104701;23;20101;-81
2022/06/13 03:21:09;;;;;;;15.75;6.75;;;;;;;;;;6104210;23;20023;-81
2022/06/13 03:23:36;;;;;;;;;;;;;;;;;;6103266;23;20471;-81
2022/06/13 03:26:06;;;;;;;16.60;6.15;;;;;;;;;;6104012;23;41866;-81
2022/06/13 03:28:38;;;;;;;15.52;6.40;;;;;;;;;;6105621;23;20736;-81
2022/06/13 03:31:13;;;;;;;17.63;6.57;;;;;;;;;;6077659;23;20025;-82
2022/06/13 03:33:42;;;;;;;19.02;6.97;;;;;;;;;;6103960;23;20019;-82
2022/06/13 03:36:24;;;;;;;21.27;6.65;;;;;;;;;;6079081;23;20034;-81
2022/06/13 03:38:51;;;;;;;19.70;7.03;;;;;;;;;;6103566;23;20031;-81
2022/06/13 03:41:20;;;;;;;20.77;6.55;;;;;;;;;;6104022;23;20461;-82
2022/06/13 03:43:50;;;;;;;21.67;6.90;;;;;;;;;;6102545;23;20043;-81
2022/06/13 03:46:22;;;;;;;19.40;6.80;;;;;;;;;;6104286;23;20891;-81
2022/06/13 03:49:12;;;;;;;24.27;7.55;;;;;;;;;;6108529;23;20114;-82
2022/06/13 03:51:45;;;;;;;20.42;7.40;;;;;;;;;;6105320;23;20023;-82
2022/06/13 03:54:13;;;;;;;21.65;7.60;;;;;;;;;;6105607;23;20654;-81
2022/06/13 03:56:47;;;;;;;18.27;8.10;;;;;;;;;;6106093;23;20819;-82
2022/06/13 03:59:14;;;;;;;22.38;7.50;;;;;;;;;;6105145;23;20947;-81
2022/06/13 04:01:44;;;;;;;20.35;7.43;;;;;;;;;;6107681;23;20047;-82
2022/06/13 04:04:16;;;;;;;18.45;7.32;;;;;;;;;;6104181;23;20079;-81
2022/06/13 04:06:44;;;;;;;21.50;8.15;;;;;;;;;;6104792;23;20380;-81
2022/06/13 04:09:20;;;;;;;20.52;7.47;;;;;;;;;;6103876;23;20091;-81
2022/06/13 04:11:47;;;;;;;19.63;8.13;;;;;;;;;;6103242;23;20025;-81
2022/06/13 04:14:20;;;;;;;21.80;8.25;;;;;;;;;;6104252;23;20029;-81
2022/06/13 04:16:55;;;;;;;18.23;6.88;;;;;;;;;;6104267;23;20027;-81
2022/06/13 04:19:28;;;;;;;25.42;9.55;;;;;;;;;;6103589;23;20023;-81
2022/06/13 04:22:04;;;;;;;19.75;8.07;;;;;;;;;;6079824;23;20037;-81
2022/06/13 04:24:41;;;;;;;22.38;8.55;;;;;;;;;;6104574;23;20495;-82
2022/06/13 04:27:20;;;;;;;27.98;8.02;;;;;;;;;;6105809;23;20019;-83
2022/06/13 04:29:50;;;;;;;20.83;7.93;;;;;;;;;;6107104;23;20812;-80
2022/06/13 04:32:20;;;;;;;21.15;7.68;;;;;;;;;;6107234;23;20067;-82
2022/06/13 04:34:50;;;;;;;25.30;7.82;;;;;;;;;;6108207;23;20082;-81
2022/06/13 04:37:18;;;;;;;25.55;7.93;;;;;;;;;;6107678;23;20030;-82
2022/06/13 04:39:46;;;;;;;26.75;9.13;;;;;;;;;;6109061;23;20146;-81
2022/06/13 04:42:14;;;;;;;20.73;7.90;;;;;;;;;;6109276;23;20063;-81
2022/06/13 04:44:45;;;;;;;27.85;8.27;;;;;;;;;;6107634;23;20027;-81
2022/06/13 04:47:14;;;;;;;32.22;8.90;;;;;;;;;;6108007;23;20117;-81
2022/06/13 04:49:51;;;;;;;32.13;9.02;;;;;;;;;;6103962;23;20118;-81
2022/06/13 04:52:20;;;;;;;22.83;7.75;;;;;;;;;;6103298;23;20113;-82
2022/06/13 04:54:50;;;;;;;24.98;8.02;;;;;;;;;;6103477;23;20029;-82
2022/06/13 04:57:18;;;;;;;31.95;9.02;;;;;;;;;;6103380;23;20540;-81
2022/06/13 04:59:46;;;;;;;23.83;8.02;;;;;;;;;;6103747;23;20027;-81
2022/06/13 05:02:15;;;;;;;28.85;8.10;;;;;;;;;;6103188;23;20061;-81
2022/06/13 05:04:42;;;;;;;25.92;8.05;;;;;;;;;;6104299;23;20043;-82
2022/06/13 05:07:12;;;;;;;25.08;7.65;;;;;;;;;;6108306;23;20019;-82
2022/06/13 05:09:50;;;;;;;24.30;7.57;;;;;;;;;;6077485;23;20031;-81
2022/06/13 05:12:17;;;;;;;32.13;7.82;;;;;;;;;;6103372;23;20114;-81
2022/06/13 05:14:48;;;;;;;20.70;7.43;;;;;;;;;;6103664;23;20769;-81
2022/06/13 05:17:15;;;;;;;27.30;7.22;;;;;;;;;;6102530;23;20037;-81
2022/06/13 05:19:45;;;;;;;23.77;7.72;;;;;;;;;;6102647;23;20014;-81
2022/06/13 05:22:17;;;;;;;24.75;8.02;;;;;;;;;;6102946;23;20033;-81
2022/06/13 05:24:48;;;;;;;18.33;7.32;;;;;;;;;;6102404;23;20018;-81
2022/06/13 05:27:16;;;;;;;27.52;7.65;;;;;;;;;;6102441;23;20047;-82
2022/06/13 05:29:46;;;;;;;24.10;7.00;;;;;;;;;;6102102;23;20034;-81
2022/06/13 05:32:14;;;;;;;27.92;7.80;;;;;;;;;;6102329;23;20086;-82
2022/06/13 05:34:43;;;;;;;25.02;7.05;;;;;;;;;;6102718;23;20031;-81
2022/06/13 05:37:15;;;;;;;23.58;6.65;;;;;;;;;;6103356;23;20158;-82
2022/06/13 05:39:44;;;;;;;19.52;7.15;;;;;;;;;;6077232;23;20091;-82
2022/06/13 05:42:13;;;;;;;26.77;7.82;;;;;;;;;;6102486;23;20377;-82
2022/06/13 05:44:43;;;;;;;23.25;6.18;;;;;;;;;;6102353;23;20083;-82
2022/06/13 05:47:17;;;;;;;19.52;6.43;;;;;;;;;;6102097;23;20101;-82
2022/06/13 05:49:46;;;;;;;20.73;5.55;;;;;;;;;;6102299;23;20026;-82
2022/06/13 05:52:13;;;;;;;18.75;4.43;;;;;;;;;;6102172;23;20026;-82
2022/06/13 05:54:43;;;;;;;16.77;4.32;;;;;;;;;;6105408;23;20027;-82
2022/06/13 05:57:10;;;;;;;18.48;4.30;;;;;;;;;;6106344;23;20022;-81
2022/06/13 05:59:40;;;;;;;16.63;4.80;;;;;;;;;;6106894;23;20065;-82
2022/06/13 06:02:16;;;;;;;12.02;3.92;;;;;;;;;;6105740;23;20037;-82
2022/06/13 06:04:50;;;;;;;12.85;3.75;;;;;;;;;;6103091;23;20061;-81
2022/06/13 06:07:25;;;;;;;15.77;3.25;;;;;;;;;;6077686;23;20874;-82
2022/06/13 06:09:55;;;;;;;13.73;3.38;;;;;;;;;;6102088;23;20030;-81
2022/06/13 06:12:22;;;;;;;13.82;2.53;;;;;;;;;;6100378;23;20465;-81
2022/06/13 06:14:49;;;;;;;10.55;2.67;;;;;;;;;;6103033;23;20414;-82
2022/06/13 06:17:17;;;;;;;7.68;2.28;;;;;;;;;;6075607;23;20105;-82
2022/06/13 06:19:51;;;;;;;14.63;2.22;;;;;;;;;;6101481;23;20027;-82
2022/06/13 06:22:19;;;;;;;10.30;2.25;;;;;;;;;;6104278;23;20813;-83
2022/06/13 06:24:46;;;;;;;6.68;2.17;;;;;;;;;;6105372;23;20026;-81
2022/06/13 06:27:18;;;;;;;10.88;2.45;;;;;;;;;;6082092;23;20026;-82
2022/06/13 06:29:55;;;;;;;9.73;2.20;;;;;;;;;;6103142;23;20023;-81
2022/06/13 06:32:22;;;;;;;8.50;2.20;;;;;;;;;;6104298;23;20055;-81
2022/06/13 06:34:49;;;;;;;7.85;1.90;;;;;;;;;;6104735;23;20031;-82
2022/06/13 06:37:16;;;;;;;6.68;2.00;;;;;;;;;;6103308;23;20026;-82
2022/06/13 06:39:45;;;;;;;7.50;2.08;;;;;;;;;;6077727;23;20672;-82
2022/06/13 06:42:14;;;;;;;9.95;2.22;;;;;;;;;;6077109;23;20023;-82
2022/06/13 06:45:05;;;;;;;9.02;2.35;;;;;;;;;;6102972;23;20023;-82
2022/06/13 06:47:35;;;;;;;9.02;1.80;;;;;;;;;;6102185;23;20567;-82
2022/06/13 06:50:03;;;;;;;6.28;1.83;;;;;;;;;;6102629;23;20035;-82
2022/06/13 06:52:30;;;;;;;10.15;2.08;;;;;;;;;;6101933;23;20106;-82
2022/06/13 07:00:31;;;;;;;9.55;2.40;;;;;;;;;;6105340;23;20043;-83
2022/06/13 07:03:04;;;;;;;10.45;2.15;;;;;;;;;;6104204;23;20053;-82
2022/06/13 07:05:32;;;;;;;7.22;2.05;;;;;;;;;;6104925;23;20029;-81
2022/06/13 07:08:02;;;;;;;5.97;1.77;;;;;;;;;;6104153;23;20026;-82
2022/06/13 07:10:29;;;;;;;7.25;1.70;;;;;;;;;;6104654;23;20050;-82
2022/06/13 07:12:56;;;;;;;10.07;2.00;;;;;;;;;;6105842;23;20347;-82
2022/06/13 07:15:26;;;;;;;10.90;2.05;;;;;;;;;;6081594;23;20018;-82
2022/06/13 07:17:53;;;;;;;7.18;1.63;;;;;;;;;;6078559;23;20022;-82
2022/06/13 07:20:21;;;;;;;7.60;2.13;;;;;;;;;;6104383;23;20757;-82
2022/06/13 07:22:55;;;;;;;4.95;1.60;;;;;;;;;;6103530;23;20664;-82
2022/06/13 07:25:24;;;;;;;5.20;1.58;;;;;;;;;;6105126;23;20018;-82
2022/06/13 07:27:52;;;;;;;8.07;1.50;;;;;;;;;;6078719;23;20035;-82
2022/06/13 07:30:26;;;;;;;8.52;1.88;;;;;;;;;;6078386;23;20106;-82
2022/06/13 07:32:57;;;;;;;6.18;1.80;;;;;;;;;;6077479;23;20098;-83
2022/06/13 07:35:25;;;;;;;7.53;1.65;;;;;;;;;;6078290;23;20026;-83
2022/06/13 07:40:38;;;;;;;12.02;2.60;;;;;;;;;;6103517;23;20023;-82
2022/06/13 07:43:06;;;;;;;13.52;2.17;;;;;;;;;;6076995;23;20019;-82
2022/06/13 07:45:36;;;;;;;4.30;1.50;;;;;;;;;;6106845;23;20038;-84
2022/06/13 07:48:16;;;;;;;6.75;1.35;;;;;;;;;;6105114;23;20523;-83
2022/06/13 07:50:44;;;;;;;11.45;1.38;;;;;;;;;;6079561;23;20027;-81
2022/06/13 07:53:11;;;;;;;8.82;1.80;;;;;;;;;;6082088;23;20053;-81
2022/06/13 07:55:44;;;;;;;6.60;1.35;;;;;;;;;;6082417;23;20767;-81
2022/06/13 07:58:19;;;;;;;7.57;1.73;;;;;;;;;;6082670;23;20019;-82
2022/06/13 08:00:48;;;;;;;4.90;1.40;;;;;;;;;;6082129;23;20121;-81
2022/06/13 08:03:23;;;;;;;5.25;1.60;;;;;;;;;;6105780;23;20102;-82
2022/06/13 08:05:51;;;;;;;7.00;1.85;;;;;;;;;;6079760;23;20051;-82
2022/06/13 08:08:18;;;;;;;5.20;1.50;;;;;;;;;;6106297;23;20109;-83
2022/06/13 08:10:48;;;;;;;4.80;1.35;;;;;;;;;;6082447;23;20026;-83
2022/06/13 08:13:20;;;;;;;7.90;1.70;;;;;;;;;;6107728;23;20027;-82
2022/06/13 08:15:47;;;;;;;4.00;1.30;;;;;;;;;;6107313;23;20018;-82
2022/06/13 08:18:15;;;;;;;5.57;1.35;;;;;;;;;;6082775;23;20023;-82
2022/06/13 08:20:51;;;;;;;4.05;1.25;;;;;;;;;;6084432;23;20035;-81
2022/06/13 08:23:19;;;;;;;11.10;1.48;;;;;;;;;;6106425;23;20034;-82
2022/06/13 08:25:54;;;;;;;10.65;1.65;;;;;;;;;;6106536;23;20041;-82
2022/06/13 08:28:24;;;;;;;6.15;1.83;;;;;;;;;;6109388;23;20047;-83
2022/06/13 08:30:53;;;;;;;8.07;1.73;;;;;;;;;;6082962;23;20027;-82
2022/06/13 08:33:21;;;;;;;4.25;0.98;;;;;;;;;;6112366;23;20066;-83
2022/06/13 08:35:49;;;;;;;7.97;1.65;;;;;;;;;;6086155;23;20027;-82
2022/06/13 08:38:17;;;;;;;6.88;1.77;;;;;;;;;;6088672;23;20022;-83
2022/06/13 08:41:06;;;;;;;5.40;1.35;;;;;;;;;;6112000;23;20074;-82
2022/06/13 08:43:34;;;;;;;12.55;1.20;;;;;;;;;;6086868;23;20030;-83
2022/06/13 08:46:07;;;;;;;6.13;1.25;;;;;;;;;;6088539;23;20014;-83
2022/06/13 08:48:44;;;;;;;10.43;1.80;;;;;;;;;;6086234;23;20200;-81
2022/06/13 08:51:14;;;;;;;8.10;1.48;;;;;;;;;;6117896;23;20015;-82
2022/06/13 08:53:44;;;;;;;6.38;1.55;;;;;;;;;;6115617;23;20019;-82
2022/06/13 08:56:17;;;;;;;5.18;1.30;;;;;;;;;;6114698;23;20050;-82
2022/06/13 08:58:53;;;;;;;5.55;1.35;;;;;;;;;;6092957;23;20075;-82
2022/06/13 09:01:34;;;;;;;3.95;1.13;;;;;;;;;;6117603;23;20075;-82
2022/06/13 09:04:08;;;;;;;4.53;1.40;;;;;;;;;;6088517;23;20383;-82
2022/06/13 09:06:54;;;;;;;5.05;1.20;;;;;;;;;;6091497;23;20023;-82
2022/06/13 09:09:31;;;;;;;4.13;1.27;;;;;;;;;;6114671;23;20030;-82
2022/06/13 09:12:31;;;;;;;9.98;1.55;;;;;;;;;;6089335;23;20023;-82
2022/06/13 09:15:15;;;;;;;10.07;1.38;;;;;;;;;;6084651;23;20100;-82
2022/06/13 09:17:56;;;;;;;6.28;1.67;;;;;;;;;;6087434;23;20023;-82
2022/06/13 09:20:29;;;;;;;5.25;1.40;;;;;;;;;;6087746;23;20051;-82
2022/06/13 09:23:11;;;;;;;10.80;1.67;;;;;;;;;;6112173;23;20098;-82
2022/06/13 09:25:45;;;;;;;5.25;1.25;;;;;;;;;;6112884;23;20622;-82
2022/06/13 09:28:23;;;;;;;7.03;1.38;;;;;;;;;;6089758;23;20019;-82
2022/06/13 09:30:55;;;;;;;4.90;1.20;;;;;;;;;;6114412;23;20023;-82
2022/06/13 09:33:34;;;;;;;4.93;1.13;;;;;;;;;;6089405;23;20063;-81
2022/06/13 09:36:27;;;;;;;4.30;1.08;;;;;;;;;;6087661;23;20712;-82
2022/06/13 09:39:18;;;;;;;6.93;1.20;;;;;;;;;;6088100;23;20023;-83
2022/06/13 09:41:55;;;;;;;6.05;1.40;;;;;;;;;;6089794;23;20029;-84
2022/06/13 09:44:30;;;;;;;4.75;1.20;;;;;;;;;;6089381;23;20007;-82
2022/06/13 09:47:10;;;;;;;6.80;1.90;;;;;;;;;;6091877;23;20010;-83
2022/06/13 09:49:50;;;;;;;6.63;1.10;;;;;;;;;;6081602;23;20445;-83
2022/06/13 09:52:29;;;;;;;6.78;1.60;;;;;;;;;;6077079;23;20027;-82
2022/06/13 09:54:59;;;;;;;12.05;1.45;;;;;;;;;;6076758;23;20019;-83
2022/06/13 09:57:34;;;;;;;7.60;1.27;;;;;;;;;;6100802;23;20456;-83
2022/06/13 10:00:02;;;;;;;;;;;;;;;;;;6079929;23;20402;-82
2022/06/13 10:02:47;;;;;;;6.03;1.30;;;;;;;;;;6081417;23;42045;-84
2022/06/13 10:05:41;;;;;;;4.43;1.38;;;;;;;;;;6114920;23;20843;-84
2022/06/13 10:08:23;;;;;;;6.55;1.20;;;;;;;;;;6101309;23;20027;-82
2022/06/13 10:11:24;;;;;;;9.25;1.50;;;;;;;;;;6083776;23;20800;-82
2022/06/13 10:13:54;;;;;;;9.32;1.85;;;;;;;;;;6082236;23;20791;-82
2022/06/13 10:16:52;;;;;;;8.52;1.40;;;;;;;;;;6084501;23;20022;-83
2022/06/13 10:19:21;;;;;;;4.68;1.40;;;;;;;;;;6106378;23;20030;-83
2022/06/13 10:22:10;;;;;;;5.55;1.77;;;;;;;;;;6084871;23;20816;-84
2022/06/13 10:24:47;;;;;;;5.57;1.40;;;;;;;;;;6087020;23;20019;-83
2022/06/13 10:27:31;;;;;;;7.55;1.55;;;;;;;;;;6085621;23;20826;-83
2022/06/13 10:30:22;;;;;;;6.60;1.30;;;;;;;;;;6108417;23;20034;-83
2022/06/13 10:32:57;;;;;;;5.15;1.40;;;;;;;;;;6108157;23;20023;-83
2022/06/13 10:35:32;;;;;;;5.60;1.30;;;;;;;;;;6109535;23;20079;-82
2022/06/13 10:38:09;;;;;;;8.50;1.45;;;;;;;;;;6084402;23;20178;-82
2022/06/13 10:40:46;;;;;;;9.32;1.42;;;;;;;;;;6084455;23;20019;-82
2022/06/13 10:43:20;;;;;;;7.32;1.55;;;;;;;;;;6084694;23;20022;-83
2022/06/13 10:45:50;;;;;;;9.50;1.33;;;;;;;;;;6084111;23;20031;-82
2022/06/13 10:48:33;;;;;;;7.63;1.50;;;;;;;;;;6080591;23;20019;-82
2022/06/13 10:51:14;;;;;;;6.45;1.30;;;;;;;;;;6107342;23;20026;-81
2022/06/13 10:54:10;;;;;;;6.93;1.50;;;;;;;;;;6085279;23;20027;-81
2022/06/13 10:59:39;;;;;;;7.00;1.73;;;;;;;;;;6109408;23;20007;-83
2022/06/13 11:02:19;;;;;;;6.32;1.50;;;;;;;;;;6083515;23;20050;-83
2022/06/13 11:05:02;;;;;;;7.47;1.30;;;;;;;;;;6108957;23;20027;-83
2022/06/13 11:07:29;;;;;;;6.93;1.30;;;;;;;;;;6084554;23;20106;-83
2022/06/13 11:10:01;;;;;;;3.60;1.23;;;;;;;;;;6081228;23;20100;-83
2022/06/13 11:12:38;;;;;;;4.20;1.15;;;;;;;;;;6105933;23;20019;-83
2022/06/13 11:23:59;;;;;;;3.85;1.20;;;;;;;;;;6108107;23;20027;-82
2022/06/13 11:29:23;;;;;;;4.20;1.10;;;;;;;;;;6109522;23;20716;-83
2022/06/13 11:31:56;;;;;;;4.85;1.20;;;;;;;;;;6084451;23;20019;-83
2022/06/13 11:34:26;;;;;;;9.15;1.55;;;;;;;;;;6083243;23;20070;-83
2022/06/13 11:37:02;;;;;;;6.78;1.52;;;;;;;;;;6083465;23;20019;-83
2022/06/13 11:39:33;;;;;;;3.90;0.85;;;;;;;;;;6109309;23;20039;-83
2022/06/13 11:42:04;;;;;;;4.47;1.10;;;;;;;;;;6082831;23;20146;-83
2022/06/13 11:44:41;;;;;;;5.60;1.33;;;;;;;;;;6082772;23;20019;-83
2022/06/13 11:47:10;;;;;;;8.60;1.27;;;;;;;;;;6082032;23;20476;-83
2022/06/13 11:49:40;;;;;;;5.00;1.20;;;;;;;;;;6081992;23;20023;-83
2022/06/13 11:55:19;;;;;;;3.25;1.20;;;;;;;;;;6106819;23;20026;-84
2022/06/13 11:57:54;;;;;;;3.38;1.08;;;;;;;;;;6083062;23;20034;-83
2022/06/13 12:00:31;;;;;;;4.60;1.20;;;;;;;;;;6083447;23;20075;-83
2022/06/13 12:03:06;;;;;;;3.85;1.20;;;;;;;;;;6083148;23;20029;-83
2022/06/13 12:05:39;;;;;;;5.97;1.60;;;;;;;;;;6083452;23;20090;-83
2022/06/13 12:08:16;;;;;;;3.78;1.10;;;;;;;;;;6083843;23;20102;-83
2022/06/13 12:11:13;;;;;;;8.43;1.40;;;;;;;;;;6084848;23;20030;-83
2022/06/13 12:13:45;;;;;;;5.68;1.40;;;;;;;;;;6057607;23;20034;-83
2022/06/13 12:16:21;;;;;;;5.88;1.20;;;;;;;;;;6086504;23;20043;-83
2022/06/13 12:19:00;;;;;;;5.85;1.20;;;;;;;;;;6084465;23;20686;-84
2022/06/13 12:21:46;;;;;;;3.78;1.30;;;;;;;;;;6081531;23;20457;-83
2022/06/13 12:24:23;;;;;;;4.57;1.20;;;;;;;;;;6083089;23;20015;-83
2022/06/13 12:27:02;;;;;;;3.97;0.90;;;;;;;;;;6083849;23;20831;-84
2022/06/13 12:29:32;;;;;;;4.05;0.88;;;;;;;;;;6108249;23;20118;-84
2022/06/13 12:32:04;;;;;;;5.10;1.10;;;;;;;;;;6115248;23;20027;-83
2022/06/13 12:34:48;;;;;;;3.85;1.25;;;;;;;;;;6092016;23;20650;-83
2022/06/13 12:37:24;;;;;;;6.30;1.52;;;;;;;;;;6117598;23;20026;-84
2022/06/13 12:39:51;;;;;;;8.13;1.00;;;;;;;;;;6090784;23;20026;-84
2022/06/13 12:42:46;;;;;;;3.83;1.17;;;;;;;;;;6091403;23;20025;-83
2022/06/13 12:45:16;;;;;;;6.90;1.27;;;;;;;;;;6092033;23;20015;-83
2022/06/13 12:47:52;;;;;;;7.93;0.93;;;;;;;;;;6115413;23;20027;-83
2022/06/13 12:50:46;;;;;;;8.00;1.27;;;;;;;;;;6092281;23;20071;-83
2022/06/13 12:53:35;;;;;;;4.20;1.23;;;;;;;;;;6117623;23;20023;-83
2022/06/13 12:56:21;;;;;;;10.95;1.33;;;;;;;;;;6116614;23;20066;-84
2022/06/13 12:59:05;;;;;;;;;;;;;;;;;;;;;
2022/06/13 13:01:39;;;;;;;5.82;1.20;;;;;;;;;;6116194;23;20019;-82
2022/06/13 13:04:33;;;;;;;5.72;1.30;;;;;;;;;;6090017;23;20027;-84
2022/06/13 13:07:24;;;;;;;5.75;1.30;;;;;;;;;;6115870;23;20037;-82
2022/06/13 13:10:08;;;;;;;3.95;1.38;;;;;;;;;;6087028;23;20078;-83
2022/06/13 13:12:53;;;;;;;5.00;1.00;;;;;;;;;;6117037;23;20031;-83
2022/06/13 13:15:40;;;;;;;4.25;0.90;;;;;;;;;;6092257;23;20022;-84
2022/06/13 13:18:25;;;;;;;4.75;1.23;;;;;;;;;;6096225;23;20097;-82
2022/06/13 13:20:59;;;;;;;5.18;1.30;;;;;;;;;;6122332;23;20075;-83
2022/06/13 13:23:29;;;;;;;4.03;1.15;;;;;;;;;;6097611;23;20023;-82
2022/06/13 13:26:20;;;;;;;8.95;1.42;;;;;;;;;;6097408;23;20019;-83
2022/06/13 13:29:10;;;;;;;4.20;1.10;;;;;;;;;;6123880;23;20075;-83
2022/06/13 13:32:04;;;;;;;5.68;1.42;;;;;;;;;;6118113;23;20031;-82
2022/06/13 13:35:02;;;;;;;5.95;1.45;;;;;;;;;;6117387;23;20011;-83
2022/06/13 13:37:31;;;;;;;;;;;;;;;;;;6091204;23;20023;-82
2022/06/13 13:40:24;;;;;;;7.97;1.42;;;;;;;;;;6113623;23;43322;-83
2022/06/13 13:43:10;;;;;;;6.32;1.40;;;;;;;;;;6113591;23;20047;-83
2022/06/13 13:46:00;;;;;;;10.00;1.58;;;;;;;;;;6113150;23;20027;-82
2022/06/13 13:48:28;;;;;;;9.18;1.40;;;;;;;;;;6114019;23;20061;-82
2022/06/13 13:51:12;;;;;;;5.57;1.48;;;;;;;;;;6114467;23;20079;-82
2022/06/13 13:53:46;;;;;;;5.60;1.38;;;;;;;;;;6115608;23;20026;-82
2022/06/13 13:56:35;;;;;;;4.60;1.10;;;;;;;;;;6116148;23;20812;-82
2022/06/13 13:59:18;;;;;;;5.67;1.50;;;;;;;;;;6090727;23;20021;-83
2022/06/13 14:01:58;;;;;;;3.88;1.23;;;;;;;;;;6088824;23;20284;-84
2022/06/13 14:04:26;;;;;;;9.82;1.30;;;;;;;;;;6113512;23;20015;-83
2022/06/13 14:07:09;;;;;;;5.90;1.45;;;;;;;;;;6089850;23;20015;-83
2022/06/13 14:09:38;;;;;;;5.20;1.20;;;;;;;;;;6116486;23;20015;-82
2022/06/13 14:12:10;;;;;;;5.43;1.48;;;;;;;;;;6091616;23;20035;-83
2022/06/13 14:14:39;;;;;;;8.25;1.73;;;;;;;;;;6092921;23;20051;-83
2022/06/13 14:17:13;;;;;;;;;;;;;;;;;;6118257;23;20026;-82
2022/06/13 14:19:40;;;;;;;6.40;1.25;;;;;;;;;;6116295;23;43171;-83
2022/06/13 14:22:15;;;;;;;7.30;1.80;;;;;;;;;;6091269;23;20011;-83
2022/06/13 14:24:47;;;;;;;4.55;1.33;;;;;;;;;;6090676;23;20023;-84
2022/06/13 14:27:18;;;;;;;7.38;1.60;;;;;;;;;;6091082;23;20029;-83
2022/06/13 14:29:49;;;;;;;6.97;1.52;;;;;;;;;;6093260;23;20018;-82
2022/06/13 14:32:29;;;;;;;10.23;1.70;;;;;;;;;;6094763;23;20059;-83
2022/06/13 14:35:15;;;;;;;5.97;1.50;;;;;;;;;;6087930;23;20058;-82
2022/06/13 14:37:58;;;;;;;;;;;;;;;;;;;;;
2022/06/13 14:40:35;;;;;;;5.07;1.60;;;;;;;;;;6115602;23;20023;-82
2022/06/13 14:43:13;;;;;;;8.07;1.42;;;;;;;;;;6114614;23;20047;-82
2022/06/13 14:45:46;;;;;;;10.57;1.70;;;;;;;;;;6089448;23;20735;-82
2022/06/13 14:48:33;;;;;;;3.42;1.30;;;;;;;;;;6116111;23;20023;-83
2022/06/13 14:51:03;;;;;;;6.68;1.90;;;;;;;;;;6116607;23;20023;-82
2022/06/13 14:53:31;;;;;;;7.53;1.40;;;;;;;;;;6090576;23;20011;-83
2022/06/13 14:56:08;;;;;;;6.50;1.42;;;;;;;;;;6117189;23;20047;-83
2022/06/13 14:59:03;;;;;;;5.85;1.70;;;;;;;;;;6116392;23;20015;-83
2022/06/13 15:01:46;;;;;;;5.65;1.63;;;;;;;;;;6093540;23;20018;-82
2022/06/13 15:04:21;;;;;;;6.57;1.67;;;;;;;;;;6087030;23;20029;-82
2022/06/13 15:06:55;;;;;;;8.20;2.03;;;;;;;;;;6091935;23;20796;-82
2022/06/13 15:09:27;;;;;;;5.65;1.55;;;;;;;;;;6086824;23;20019;-83
2022/06/13 15:11:56;;;;;;;8.35;1.70;;;;;;;;;;6111427;23;20030;-82
2022/06/13 15:14:37;;;;;;;4.18;1.45;;;;;;;;;;6092317;23;20011;-83
2022/06/13 15:17:09;;;;;;;10.25;2.15;;;;;;;;;;6092621;23;20033;-84
2022/06/13 15:19:41;;;;;;;6.93;1.55;;;;;;;;;;6095588;23;20043;-84
2022/06/13 15:22:25;;;;;;;6.25;1.70;;;;;;;;;;6096775;23;20025;-83
2022/06/13 15:24:57;;;;;;;7.25;1.70;;;;;;;;;;6096152;23;20034;-83
2022/06/13 15:27:25;;;;;;;6.60;1.60;;;;;;;;;;6095163;23;20069;-84
2022/06/13 15:30:12;;;;;;;6.97;1.60;;;;;;;;;;6091323;23;20110;-83
2022/06/13 15:32:43;;;;;;;6.57;1.40;;;;;;;;;;6088109;23;20043;-82
2022/06/13 15:35:11;;;;;;;7.45;1.95;;;;;;;;;;6118258;23;20042;-82
2022/06/13 15:37:42;;;;;;;7.60;1.70;;;;;;;;;;6092041;23;20517;-80
2022/06/13 15:40:24;;;;;;;6.20;1.60;;;;;;;;;;6118555;23;20014;-83
2022/06/13 15:42:52;;;;;;;7.50;2.00;;;;;;;;;;6092782;23;20002;-83
2022/06/13 15:45:30;;;;;;;7.47;2.00;;;;;;;;;;6088816;23;20844;-83
2022/06/13 15:47:58;;;;;;;7.35;1.70;;;;;;;;;;6092150;23;20023;-81
2022/06/13 15:50:35;;;;;;;8.45;2.20;;;;;;;;;;6095870;23;20027;-85
2022/06/13 15:53:03;;;;;;;8.63;2.05;;;;;;;;;;6085588;23;20027;-81